Eurocargo Palermo — IBAU — position and weather

sailwx.info

Track history (hours):
 
Tides and Currents Weather Stations Pressure Air Temp Water Temp Dewpoint Dewpoint Depression Visibility Wind Speed Wind Dir Waves Ship Positions

Eurocargo Palermo

Last reported at 2018-Apr-21 00:01 UTC. Time now 2018-Apr-21 00:23 UTC.
Position N 43°22' E 007°14'.

Length 200 m; draft 7.6 m.

Type: Cargo ship. MMSI: 247241800.

Date/timePositionNaut miles runAvg speedWind from/ knotsBaromVisibWave heightAir tempDewpointWater temp
2018-Apr-21 00:01N 43°22' E 007°14'918.0
2018-Apr-20 23:30N 43°17' E 007°04'21418.2
2018-Apr-20 11:46N 41°31' E 002°52'518.0
2018-Apr-20 11:30N 41°29' E 002°46'918.3
2018-Apr-20 10:59N 41°24' E 002°35'918.4
2018-Apr-20 10:30N 41°19' E 002°26'918.5
2018-Apr-20 10:00N 41°14' E 002°15'918.3
2018-Apr-20 09:30N 41°09' E 002°05'918.4
2018-Apr-20 09:00N 41°04' E 001°55'918.4
2018-Apr-20 08:30N 40°59' E 001°44'11718.1
2018-Apr-20 02:00N 39°37' W 000°05'918.5
2018-Apr-20 01:30N 39°30' W 000°13'510.7
2018-Apr-20 01:00N 39°27' W 000°18'0 0.0
2018-Apr-20 00:26N 39°27' W 000°18'0 0.0
2018-Apr-19 23:56N 39°27' W 000°18'0 0.0
2018-Apr-19 23:26N 39°27' W 000°18'0 0.0
2018-Apr-19 22:53N 39°27' W 000°18'0 0.0
2018-Apr-19 20:05N 39°27' W 000°18'0 0.0
2018-Apr-19 19:56N 39°27' W 000°18'0 0.0
2018-Apr-19 19:26N 39°27' W 000°18'0 0.0
2018-Apr-19 17:59N 39°27' W 000°18'0 0.0
2018-Apr-19 16:59N 39°27' W 000°18'0 0.0
2018-Apr-19 16:29N 39°27' W 000°18'0 0.0
2018-Apr-19 15:59N 39°27' W 000°18'0 0.0
2018-Apr-19 14:35N 39°27' W 000°18'0 0.0
2018-Apr-19 14:08N 39°27' W 000°18'0 0.0
2018-Apr-19 13:50N 39°27' W 000°18'0 0.0
2018-Apr-19 13:14N 39°27' W 000°18'0 0.0
2018-Apr-19 10:08N 39°27' W 000°18'0 0.0
2018-Apr-19 07:26N 39°27' W 000°18'0 0.0
2018-Apr-19 06:44N 39°27' W 000°18'0 0.0
2018-Apr-19 06:29N 39°27' W 000°18'1 2.1
2018-Apr-19 06:00N 39°26' W 000°17'1 2.1
2018-Apr-19 05:30N 39°27' W 000°16'12718.7
2018-Apr-18 22:45N 40°57' E 001°40'519.6
2018-Apr-18 22:30N 40°60' E 001°45'1019.5
2018-Apr-18 22:00N 41°05' E 001°56'919.3
2018-Apr-18 21:31N 41°10' E 002°07'1019.4
2018-Apr-18 21:01N 41°15' E 002°18'1019.3
2018-Apr-18 20:31N 41°20' E 002°28'1019.1
2018-Apr-18 20:00N 41°26' E 002°39'22318.2
2018-Apr-18 07:47N 43°16' E 007°01'518.8
2018-Apr-18 07:30N 43°19' E 007°07'1018.7
2018-Apr-18 06:59N 43°24' E 007°17'3818.7
2018-Apr-18 04:59N 43°47' E 007°59'918.7
2018-Apr-18 04:30N 43°52' E 008°09'918.5
2018-Apr-18 04:00N 43°59' E 008°17'918.4
2018-Apr-18 03:31N 44°06' E 008°25'918.2
2018-Apr-18 03:01N 44°14' E 008°31'5 8.8
2018-Apr-18 02:29N 44°19' E 008°30'0 0.0
2018-Apr-18 01:59N 44°19' E 008°30'0 0.0
2018-Apr-18 01:29N 44°19' E 008°30'0 0.0
2018-Apr-18 00:59N 44°19' E 008°30'0 0.0
2018-Apr-18 00:26N 44°19' E 008°30'0 0.0
2018-Apr-17 23:59N 44°19' E 008°30'0 0.0
2018-Apr-17 23:30N 44°19' E 008°30'4 9.0
2018-Apr-17 23:00N 44°17' E 008°35'918.2
2018-Apr-17 22:30N 44°11' E 008°46'918.0
2018-Apr-17 22:00N 44°06' E 008°56'917.9
2018-Apr-17 21:30N 44°01' E 009°06'918.0
2018-Apr-17 21:00N 43°55' E 009°16'918.3
2018-Apr-17 20:30N 43°50' E 009°26'918.0
2018-Apr-17 20:00N 43°45' E 009°36'918.1
2018-Apr-17 19:30N 43°39' E 009°46'918.0
2018-Apr-17 19:00N 43°34' E 009°56'917.8
2018-Apr-17 18:30N 43°31' E 010°08'714.3
2018-Apr-17 18:01N 43°32' E 010°17'2 4.8
2018-Apr-17 17:30N 43°35' E 010°19'0 0.0
2018-Apr-17 16:59N 43°35' E 010°19'0 0.0
2018-Apr-17 16:29N 43°35' E 010°19'0 0.0
2018-Apr-17 15:59N 43°35' E 010°19'0 0.0
2018-Apr-17 15:29N 43°35' E 010°19'0 0.0
2018-Apr-17 14:59N 43°35' E 010°19'0 0.0
2018-Apr-17 14:29N 43°35' E 010°19'0 0.0
2018-Apr-17 13:59N 43°35' E 010°19'0 0.0
2018-Apr-17 13:29N 43°35' E 010°19'0 0.0
2018-Apr-17 12:59N 43°35' E 010°19'0 0.0
2018-Apr-17 12:29N 43°35' E 010°19'0 0.0
2018-Apr-17 11:59N 43°35' E 010°19'0 0.0
2018-Apr-17 11:29N 43°35' E 010°19'0 0.0
2018-Apr-17 10:59N 43°35' E 010°19'0 0.2
2018-Apr-17 10:30N 43°35' E 010°19'3 5.5
2018-Apr-17 10:00N 43°32' E 010°17'510.0
2018-Apr-17 09:30N 43°28' E 010°14'0 0.8
2018-Apr-17 09:00N 43°28' E 010°14'0 0.7
2018-Apr-17 08:30N 43°28' E 010°13'0 0.6
2018-Apr-17 08:00N 43°28' E 010°13'0 0.5
2018-Apr-17 07:30N 43°28' E 010°13'0 0.4
2018-Apr-17 07:00N 43°29' E 010°12'0 0.4
2018-Apr-17 06:30N 43°29' E 010°12'0 0.5
2018-Apr-17 06:01N 43°29' E 010°12'0 0.5
2018-Apr-17 05:31N 43°29' E 010°12'0 0.8
2018-Apr-17 05:00N 43°29' E 010°11'4 7.6
2018-Apr-17 04:31N 43°29' E 010°06'815.9
2018-Apr-17 04:00N 43°34' E 009°57'917.4
2018-Apr-17 03:30N 43°39' E 009°47'917.4
2018-Apr-17 03:00N 43°44' E 009°37'917.3
2018-Apr-17 02:30N 43°49' E 009°28'917.1
2018-Apr-17 02:00N 43°54' E 009°18'917.0
2018-Apr-17 01:30N 43°59' E 009°08'917.4
2018-Apr-17 01:00N 44°04' E 008°58'917.7
2018-Apr-17 00:30N 44°09' E 008°48'917.8
2018-Apr-17 00:00N 44°15' E 008°39'714.7
2018-Apr-16 23:30N 44°19' E 008°30'0 0.4
2018-Apr-16 23:00N 44°19' E 008°30'0 0.0
2018-Apr-16 22:30N 44°19' E 008°30'0 0.0
2018-Apr-16 22:00N 44°19' E 008°30'0 0.0
2018-Apr-16 21:30N 44°19' E 008°30'0 0.0
2018-Apr-16 21:00N 44°19' E 008°30'0 0.0
2018-Apr-16 20:27N 44°19' E 008°30'0 0.0
2018-Apr-16 20:00N 44°19' E 008°30'0 0.0
2018-Apr-16 19:30N 44°19' E 008°30'0 0.0
2018-Apr-16 19:00N 44°19' E 008°30'0 0.0
2018-Apr-16 18:30N 44°19' E 008°30'0 0.0
2018-Apr-16 18:01N 44°19' E 008°30'0 0.0
2018-Apr-16 17:30N 44°19' E 008°30'0 0.0
2018-Apr-16 16:57N 44°19' E 008°30'0 0.0
2018-Apr-16 16:30N 44°19' E 008°30'0 0.0
2018-Apr-16 15:57N 44°19' E 008°30'0 0.0
2018-Apr-16 15:30N 44°19' E 008°30'0 0.0
2018-Apr-16 14:57N 44°19' E 008°30'0 0.0
2018-Apr-16 14:27N 44°19' E 008°30'0 0.0
2018-Apr-16 14:00N 44°19' E 008°30'0 0.0
2018-Apr-16 13:30N 44°19' E 008°30'0 0.0
2018-Apr-16 13:01N 44°19' E 008°30'0 0.0
2018-Apr-16 12:30N 44°19' E 008°30'0 0.0
2018-Apr-16 11:57N 44°19' E 008°30'0 0.0
2018-Apr-16 11:30N 44°19' E 008°30'0 0.0
2018-Apr-16 11:00N 44°19' E 008°30'1 1.3
2018-Apr-16 10:30N 44°19' E 008°31'815.7
2018-Apr-16 10:00N 44°11' E 008°30'816.4
2018-Apr-16 09:31N 44°04' E 008°23'816.2
2018-Apr-16 09:00N 43°58' E 008°16'815.4
2018-Apr-16 08:28N 43°51' E 008°08'2916.5
2018-Apr-16 06:42N 43°34' E 007°36'418.1
2018-Apr-16 06:30N 43°32' E 007°32'917.9
2018-Apr-16 06:01N 43°27' E 007°22'917.5
2018-Apr-16 05:31N 43°22' E 007°13'917.2
2018-Apr-16 05:01N 43°17' E 007°03'21417.8
2018-Apr-15 16:59N 41°31' E 002°51'818.0
2018-Apr-15 16:31N 41°27' E 002°41'918.0
2018-Apr-15 16:00N 41°22' E 002°31'918.2
2018-Apr-15 15:30N 41°17' E 002°21'918.0
2018-Apr-15 15:01N 41°12' E 002°11'918.1
2018-Apr-15 14:31N 41°07' E 002°01'918.0
2018-Apr-15 13:59N 41°03' E 001°50'917.9
2018-Apr-15 13:30N 40°58' E 001°40'11417.8
2018-Apr-15 07:06N 39°37' W 000°05'217.9
2018-Apr-15 06:59N 39°35' W 000°06'817.9
2018-Apr-15 06:30N 39°29' W 000°14'4 8.1
2018-Apr-15 05:59N 39°27' W 000°18'0 0.0
2018-Apr-15 05:28N 39°27' W 000°18'0 0.0
2018-Apr-15 01:28N 39°27' W 000°18'0 0.0
2018-Apr-14 11:46N 39°27' W 000°18'1 2.3
2018-Apr-14 11:31N 39°26' W 000°18'917.7
2018-Apr-14 11:00N 39°32' W 000°10'12120.6
2018-Apr-14 05:09N 40°58' E 001°42'621.4
2018-Apr-14 04:51N 41°01' E 001°49'821.7
2018-Apr-14 04:30N 41°05' E 001°57'1121.9
2018-Apr-14 04:00N 41°11' E 002°09'1121.9
2018-Apr-14 03:30N 41°17' E 002°21'1121.6
2018-Apr-14 03:00N 41°23' E 002°34'22821.6
2018-Apr-13 16:26N 43°17' E 007°01'921.8
2018-Apr-13 16:00N 43°22' E 007°12'1121.9
2018-Apr-13 15:30N 43°29' E 007°24'4721.9
2018-Apr-13 13:20N 43°58' E 008°16'821.8
2018-Apr-13 12:59N 44°04' E 008°22'1021.6
2018-Apr-13 12:30N 44°12' E 008°31'712.4
2018-Apr-13 11:59N 44°19' E 008°30'0 0.0
2018-Apr-13 11:29N 44°19' E 008°30'0 0.0
2018-Apr-13 10:59N 44°19' E 008°30'0 0.0
2018-Apr-13 10:26N 44°19' E 008°30'0 0.0
2018-Apr-13 09:59N 44°19' E 008°30'0 0.0
2018-Apr-13 09:29N 44°19' E 008°30'0 0.0
2018-Apr-13 08:59N 44°19' E 008°30'0 0.0
2018-Apr-13 08:29N 44°19' E 008°30'0 0.0
2018-Apr-13 07:59N 44°19' E 008°30'0 0.0
2018-Apr-13 07:29N 44°19' E 008°30'0 0.0
2018-Apr-13 06:59N 44°19' E 008°30'0 0.0
2018-Apr-13 06:29N 44°19' E 008°30'0 0.0
2018-Apr-13 05:59N 44°19' E 008°30'0 0.9
2018-Apr-13 05:30N 44°19' E 008°30'817.0
2018-Apr-13 05:00N 44°14' E 008°40'918.9
2018-Apr-13 04:30N 44°09' E 008°51'918.9
2018-Apr-13 04:00N 44°03' E 009°01'918.9
2018-Apr-13 03:30N 43°57' E 009°12'1019.1
2018-Apr-13 03:00N 43°52' E 009°23'1019.2
2018-Apr-13 02:30N 43°46' E 009°34'919.1
2018-Apr-13 02:00N 43°41' E 009°44'1019.1
2018-Apr-13 01:30N 43°35' E 009°55'1019.5
2018-Apr-13 01:00N 43°31' E 010°07'815.5
2018-Apr-13 00:30N 43°32' E 010°17'3 5.3
2018-Apr-13 00:00N 43°35' E 010°19'0 0.2
2018-Apr-12 23:30N 43°35' E 010°19'0 0.0
2018-Apr-12 23:00N 43°35' E 010°19'0 0.0
2018-Apr-12 22:30N 43°35' E 010°19'0 0.0
2018-Apr-12 22:00N 43°35' E 010°19'0 0.0
2018-Apr-12 21:30N 43°35' E 010°19'0 0.0
2018-Apr-12 20:57N 43°35' E 010°19'0 0.0
2018-Apr-12 20:30N 43°35' E 010°19'0 0.0
2018-Apr-12 20:00N 43°35' E 010°19'0 0.0
2018-Apr-12 19:30N 43°35' E 010°19'0 0.0
2018-Apr-12 19:00N 43°35' E 010°19'0 0.0
2018-Apr-12 18:30N 43°35' E 010°19'0 0.0
2018-Apr-12 18:00N 43°35' E 010°19'0 0.0
2018-Apr-12 17:27N 43°35' E 010°19'0 0.0
2018-Apr-12 16:57N 43°35' E 010°19'0 0.0
2018-Apr-12 16:30N 43°35' E 010°19'0 0.0
2018-Apr-12 16:00N 43°35' E 010°19'0 0.0
2018-Apr-12 15:30N 43°35' E 010°19'0 0.0
2018-Apr-12 15:00N 43°35' E 010°19'0 0.0
2018-Apr-12 14:27N 43°35' E 010°19'0 0.0
2018-Apr-12 14:00N 43°35' E 010°19'0 0.0
2018-Apr-12 13:30N 43°35' E 010°19'0 0.8
2018-Apr-12 13:00N 43°34' E 010°19'3 6.8
2018-Apr-12 12:30N 43°32' E 010°16'816.4
2018-Apr-12 12:01N 43°26' E 010°08'1121.0
2018-Apr-12 11:30N 43°20' E 009°56'1020.6
2018-Apr-12 11:00N 43°19' E 009°42'1020.8
2018-Apr-12 10:30N 43°17' E 009°28'1020.9
2018-Apr-12 10:00N 43°16' E 009°14'1121.3
2018-Apr-12 09:30N 43°14' E 008°59'30520.2
2018-Apr-11 18:25N 41°25' E 002°34'820.3
2018-Apr-11 18:00N 41°20' E 002°25'1019.0
2018-Apr-11 17:30N 41°17' E 002°13'4 8.0
2018-Apr-11 17:00N 41°21' E 002°10'1 0.3
2018-Apr-11 12:00N 41°22' E 002°11'0 0.0
2018-Apr-11 09:33N 41°22' E 002°11'0 0.7
2018-Apr-11 09:29N 41°22' E 002°11'3 5.9
2018-Apr-11 09:00N 41°19' E 002°10'918.5
2018-Apr-11 08:30N 41°10' E 002°08'1120.9
2018-Apr-11 08:00N 41°00' E 002°02'12817.8
2018-Apr-11 00:49N 39°37' W 000°05'617.8
2018-Apr-11 00:30N 39°33' W 000°09'  
Track history (hours):
 
Tides and Currents Weather Stations Pressure Air Temp Water Temp Dewpoint Dewpoint Depression Visibility Wind Speed Wind Dir Waves Ship Positions

Eurocargo Palermo

Last reported at 2018-Apr-21 00:01 UTC. Time now 2018-Apr-21 00:23 UTC.
Position N 43°22' E 007°14'.

Length 200 m; draft 7.6 m.

Type: Cargo ship. MMSI: 247241800.

Date/timePositionNaut miles runAvg speedWind from/ knotsBaromVisibWave heightAir tempDewpointWater temp
2018-Apr-21 00:01N 43°22' E 007°14'918.0
2018-Apr-20 23:30N 43°17' E 007°04'21418.2
2018-Apr-20 11:46N 41°31' E 002°52'518.0
2018-Apr-20 11:30N 41°29' E 002°46'918.3
2018-Apr-20 10:59N 41°24' E 002°35'918.4
2018-Apr-20 10:30N 41°19' E 002°26'918.5
2018-Apr-20 10:00N 41°14' E 002°15'918.3
2018-Apr-20 09:30N 41°09' E 002°05'918.4
2018-Apr-20 09:00N 41°04' E 001°55'918.4
2018-Apr-20 08:30N 40°59' E 001°44'11718.1
2018-Apr-20 02:00N 39°37' W 000°05'918.5
2018-Apr-20 01:30N 39°30' W 000°13'510.7
2018-Apr-20 01:00N 39°27' W 000°18'0 0.0
2018-Apr-20 00:26N 39°27' W 000°18'0 0.0
2018-Apr-19 23:56N 39°27' W 000°18'0 0.0
2018-Apr-19 23:26N 39°27' W 000°18'0 0.0
2018-Apr-19 22:53N 39°27' W 000°18'0 0.0
2018-Apr-19 20:05N 39°27' W 000°18'0 0.0
2018-Apr-19 19:56N 39°27' W 000°18'0 0.0
2018-Apr-19 19:26N 39°27' W 000°18'0 0.0
2018-Apr-19 17:59N 39°27' W 000°18'0 0.0
2018-Apr-19 16:59N 39°27' W 000°18'0 0.0
2018-Apr-19 16:29N 39°27' W 000°18'0 0.0
2018-Apr-19 15:59N 39°27' W 000°18'0 0.0
2018-Apr-19 14:35N 39°27' W 000°18'0 0.0
2018-Apr-19 14:08N 39°27' W 000°18'0 0.0
2018-Apr-19 13:50N 39°27' W 000°18'0 0.0
2018-Apr-19 13:14N 39°27' W 000°18'0 0.0
2018-Apr-19 10:08N 39°27' W 000°18'0 0.0
2018-Apr-19 07:26N 39°27' W 000°18'0 0.0
2018-Apr-19 06:44N 39°27' W 000°18'0 0.0
2018-Apr-19 06:29N 39°27' W 000°18'1 2.1
2018-Apr-19 06:00N 39°26' W 000°17'1 2.1
2018-Apr-19 05:30N 39°27' W 000°16'12718.7
2018-Apr-18 22:45N 40°57' E 001°40'519.6
2018-Apr-18 22:30N 40°60' E 001°45'1019.5
2018-Apr-18 22:00N 41°05' E 001°56'919.3
2018-Apr-18 21:31N 41°10' E 002°07'1019.4
2018-Apr-18 21:01N 41°15' E 002°18'1019.3
2018-Apr-18 20:31N 41°20' E 002°28'1019.1
2018-Apr-18 20:00N 41°26' E 002°39'22318.2
2018-Apr-18 07:47N 43°16' E 007°01'518.8
2018-Apr-18 07:30N 43°19' E 007°07'1018.7
2018-Apr-18 06:59N 43°24' E 007°17'3818.7
2018-Apr-18 04:59N 43°47' E 007°59'918.7
2018-Apr-18 04:30N 43°52' E 008°09'918.5
2018-Apr-18 04:00N 43°59' E 008°17'918.4
2018-Apr-18 03:31N 44°06' E 008°25'918.2
2018-Apr-18 03:01N 44°14' E 008°31'5 8.8
2018-Apr-18 02:29N 44°19' E 008°30'0 0.0
2018-Apr-18 01:59N 44°19' E 008°30'0 0.0
2018-Apr-18 01:29N 44°19' E 008°30'0 0.0
2018-Apr-18 00:59N 44°19' E 008°30'0 0.0
2018-Apr-18 00:26N 44°19' E 008°30'0 0.0
2018-Apr-17 23:59N 44°19' E 008°30'0 0.0
2018-Apr-17 23:30N 44°19' E 008°30'4 9.0
2018-Apr-17 23:00N 44°17' E 008°35'918.2
2018-Apr-17 22:30N 44°11' E 008°46'918.0
2018-Apr-17 22:00N 44°06' E 008°56'917.9
2018-Apr-17 21:30N 44°01' E 009°06'918.0
2018-Apr-17 21:00N 43°55' E 009°16'918.3
2018-Apr-17 20:30N 43°50' E 009°26'918.0
2018-Apr-17 20:00N 43°45' E 009°36'918.1
2018-Apr-17 19:30N 43°39' E 009°46'918.0
2018-Apr-17 19:00N 43°34' E 009°56'917.8
2018-Apr-17 18:30N 43°31' E 010°08'714.3
2018-Apr-17 18:01N 43°32' E 010°17'2 4.8
2018-Apr-17 17:30N 43°35' E 010°19'0 0.0
2018-Apr-17 16:59N 43°35' E 010°19'0 0.0
2018-Apr-17 16:29N 43°35' E 010°19'0 0.0
2018-Apr-17 15:59N 43°35' E 010°19'0 0.0
2018-Apr-17 15:29N 43°35' E 010°19'0 0.0
2018-Apr-17 14:59N 43°35' E 010°19'0 0.0
2018-Apr-17 14:29N 43°35' E 010°19'0 0.0
2018-Apr-17 13:59N 43°35' E 010°19'0 0.0
2018-Apr-17 13:29N 43°35' E 010°19'0 0.0
2018-Apr-17 12:59N 43°35' E 010°19'0 0.0
2018-Apr-17 12:29N 43°35' E 010°19'0 0.0
2018-Apr-17 11:59N 43°35' E 010°19'0 0.0
2018-Apr-17 11:29N 43°35' E 010°19'0 0.0
2018-Apr-17 10:59N 43°35' E 010°19'0 0.2
2018-Apr-17 10:30N 43°35' E 010°19'3 5.5
2018-Apr-17 10:00N 43°32' E 010°17'510.0
2018-Apr-17 09:30N 43°28' E 010°14'0 0.8
2018-Apr-17 09:00N 43°28' E 010°14'0 0.7
2018-Apr-17 08:30N 43°28' E 010°13'0 0.6
2018-Apr-17 08:00N 43°28' E 010°13'0 0.5
2018-Apr-17 07:30N 43°28' E 010°13'0 0.4
2018-Apr-17 07:00N 43°29' E 010°12'0 0.4
2018-Apr-17 06:30N 43°29' E 010°12'0 0.5
2018-Apr-17 06:01N 43°29' E 010°12'0 0.5
2018-Apr-17 05:31N 43°29' E 010°12'0 0.8
2018-Apr-17 05:00N 43°29' E 010°11'4 7.6
2018-Apr-17 04:31N 43°29' E 010°06'815.9
2018-Apr-17 04:00N 43°34' E 009°57'917.4
2018-Apr-17 03:30N 43°39' E 009°47'917.4
2018-Apr-17 03:00N 43°44' E 009°37'917.3
2018-Apr-17 02:30N 43°49' E 009°28'917.1
2018-Apr-17 02:00N 43°54' E 009°18'917.0
2018-Apr-17 01:30N 43°59' E 009°08'917.4
2018-Apr-17 01:00N 44°04' E 008°58'917.7
2018-Apr-17 00:30N 44°09' E 008°48'917.8
2018-Apr-17 00:00N 44°15' E 008°39'714.7
2018-Apr-16 23:30N 44°19' E 008°30'0 0.4
2018-Apr-16 23:00N 44°19' E 008°30'0 0.0
2018-Apr-16 22:30N 44°19' E 008°30'0 0.0
2018-Apr-16 22:00N 44°19' E 008°30'0 0.0
2018-Apr-16 21:30N 44°19' E 008°30'0 0.0
2018-Apr-16 21:00N 44°19' E 008°30'0 0.0
2018-Apr-16 20:27N 44°19' E 008°30'0 0.0
2018-Apr-16 20:00N 44°19' E 008°30'0 0.0
2018-Apr-16 19:30N 44°19' E 008°30'0 0.0
2018-Apr-16 19:00N 44°19' E 008°30'0 0.0
2018-Apr-16 18:30N 44°19' E 008°30'0 0.0
2018-Apr-16 18:01N 44°19' E 008°30'0 0.0
2018-Apr-16 17:30N 44°19' E 008°30'0 0.0
2018-Apr-16 16:57N 44°19' E 008°30'0 0.0
2018-Apr-16 16:30N 44°19' E 008°30'0 0.0
2018-Apr-16 15:57N 44°19' E 008°30'0 0.0
2018-Apr-16 15:30N 44°19' E 008°30'0 0.0
2018-Apr-16 14:57N 44°19' E 008°30'0 0.0
2018-Apr-16 14:27N 44°19' E 008°30'0 0.0
2018-Apr-16 14:00N 44°19' E 008°30'0 0.0
2018-Apr-16 13:30N 44°19' E 008°30'0 0.0
2018-Apr-16 13:01N 44°19' E 008°30'0 0.0
2018-Apr-16 12:30N 44°19' E 008°30'0 0.0
2018-Apr-16 11:57N 44°19' E 008°30'0 0.0
2018-Apr-16 11:30N 44°19' E 008°30'0 0.0
2018-Apr-16 11:00N 44°19' E 008°30'1 1.3
2018-Apr-16 10:30N 44°19' E 008°31'815.7
2018-Apr-16 10:00N 44°11' E 008°30'816.4
2018-Apr-16 09:31N 44°04' E 008°23'816.2
2018-Apr-16 09:00N 43°58' E 008°16'815.4
2018-Apr-16 08:28N 43°51' E 008°08'2916.5
2018-Apr-16 06:42N 43°34' E 007°36'418.1
2018-Apr-16 06:30N 43°32' E 007°32'917.9
2018-Apr-16 06:01N 43°27' E 007°22'917.5
2018-Apr-16 05:31N 43°22' E 007°13'917.2
2018-Apr-16 05:01N 43°17' E 007°03'21417.8
2018-Apr-15 16:59N 41°31' E 002°51'818.0
2018-Apr-15 16:31N 41°27' E 002°41'918.0
2018-Apr-15 16:00N 41°22' E 002°31'918.2
2018-Apr-15 15:30N 41°17' E 002°21'918.0
2018-Apr-15 15:01N 41°12' E 002°11'918.1
2018-Apr-15 14:31N 41°07' E 002°01'918.0
2018-Apr-15 13:59N 41°03' E 001°50'917.9
2018-Apr-15 13:30N 40°58' E 001°40'11417.8
2018-Apr-15 07:06N 39°37' W 000°05'217.9
2018-Apr-15 06:59N 39°35' W 000°06'817.9
2018-Apr-15 06:30N 39°29' W 000°14'4 8.1
2018-Apr-15 05:59N 39°27' W 000°18'0 0.0
2018-Apr-15 05:28N 39°27' W 000°18'0 0.0
2018-Apr-15 01:28N 39°27' W 000°18'0 0.0
2018-Apr-14 11:46N 39°27' W 000°18'1 2.3
2018-Apr-14 11:31N 39°26' W 000°18'917.7
2018-Apr-14 11:00N 39°32' W 000°10'12120.6
2018-Apr-14 05:09N 40°58' E 001°42'621.4
2018-Apr-14 04:51N 41°01' E 001°49'821.7
2018-Apr-14 04:30N 41°05' E 001°57'1121.9
2018-Apr-14 04:00N 41°11' E 002°09'1121.9
2018-Apr-14 03:30N 41°17' E 002°21'1121.6
2018-Apr-14 03:00N 41°23' E 002°34'22821.6
2018-Apr-13 16:26N 43°17' E 007°01'921.8
2018-Apr-13 16:00N 43°22' E 007°12'1121.9
2018-Apr-13 15:30N 43°29' E 007°24'4721.9
2018-Apr-13 13:20N 43°58' E 008°16'821.8
2018-Apr-13 12:59N 44°04' E 008°22'1021.6
2018-Apr-13 12:30N 44°12' E 008°31'712.4
2018-Apr-13 11:59N 44°19' E 008°30'0 0.0
2018-Apr-13 11:29N 44°19' E 008°30'0 0.0
2018-Apr-13 10:59N 44°19' E 008°30'0 0.0
2018-Apr-13 10:26N 44°19' E 008°30'0 0.0
2018-Apr-13 09:59N 44°19' E 008°30'0 0.0
2018-Apr-13 09:29N 44°19' E 008°30'0 0.0
2018-Apr-13 08:59N 44°19' E 008°30'0 0.0
2018-Apr-13 08:29N 44°19' E 008°30'0 0.0
2018-Apr-13 07:59N 44°19' E 008°30'0 0.0
2018-Apr-13 07:29N 44°19' E 008°30'0 0.0
2018-Apr-13 06:59N 44°19' E 008°30'0 0.0
2018-Apr-13 06:29N 44°19' E 008°30'0 0.0
2018-Apr-13 05:59N 44°19' E 008°30'0 0.9
2018-Apr-13 05:30N 44°19' E 008°30'817.0
2018-Apr-13 05:00N 44°14' E 008°40'918.9
2018-Apr-13 04:30N 44°09' E 008°51'918.9
2018-Apr-13 04:00N 44°03' E 009°01'918.9
2018-Apr-13 03:30N 43°57' E 009°12'1019.1
2018-Apr-13 03:00N 43°52' E 009°23'1019.2
2018-Apr-13 02:30N 43°46' E 009°34'919.1
2018-Apr-13 02:00N 43°41' E 009°44'1019.1
2018-Apr-13 01:30N 43°35' E 009°55'1019.5
2018-Apr-13 01:00N 43°31' E 010°07'815.5
2018-Apr-13 00:30N 43°32' E 010°17'3 5.3
2018-Apr-13 00:00N 43°35' E 010°19'0 0.2
2018-Apr-12 23:30N 43°35' E 010°19'0 0.0
2018-Apr-12 23:00N 43°35' E 010°19'0 0.0
2018-Apr-12 22:30N 43°35' E 010°19'0 0.0
2018-Apr-12 22:00N 43°35' E 010°19'0 0.0
2018-Apr-12 21:30N 43°35' E 010°19'0 0.0
2018-Apr-12 20:57N 43°35' E 010°19'0 0.0
2018-Apr-12 20:30N 43°35' E 010°19'0 0.0
2018-Apr-12 20:00N 43°35' E 010°19'0 0.0
2018-Apr-12 19:30N 43°35' E 010°19'0 0.0
2018-Apr-12 19:00N 43°35' E 010°19'0 0.0
2018-Apr-12 18:30N 43°35' E 010°19'0 0.0
2018-Apr-12 18:00N 43°35' E 010°19'0 0.0
2018-Apr-12 17:27N 43°35' E 010°19'0 0.0
2018-Apr-12 16:57N 43°35' E 010°19'0 0.0
2018-Apr-12 16:30N 43°35' E 010°19'0 0.0
2018-Apr-12 16:00N 43°35' E 010°19'0 0.0
2018-Apr-12 15:30N 43°35' E 010°19'0 0.0
2018-Apr-12 15:00N 43°35' E 010°19'0 0.0
2018-Apr-12 14:27N 43°35' E 010°19'0 0.0
2018-Apr-12 14:00N 43°35' E 010°19'0 0.0
2018-Apr-12 13:30N 43°35' E 010°19'0 0.8
2018-Apr-12 13:00N 43°34' E 010°19'3 6.8
2018-Apr-12 12:30N 43°32' E 010°16'816.4
2018-Apr-12 12:01N 43°26' E 010°08'1121.0
2018-Apr-12 11:30N 43°20' E 009°56'1020.6
2018-Apr-12 11:00N 43°19' E 009°42'1020.8
2018-Apr-12 10:30N 43°17' E 009°28'1020.9
2018-Apr-12 10:00N 43°16' E 009°14'1121.3
2018-Apr-12 09:30N 43°14' E 008°59'30520.2
2018-Apr-11 18:25N 41°25' E 002°34'820.3
2018-Apr-11 18:00N 41°20' E 002°25'1019.0
2018-Apr-11 17:30N 41°17' E 002°13'4 8.0
2018-Apr-11 17:00N 41°21' E 002°10'1 0.3
2018-Apr-11 12:00N 41°22' E 002°11'0 0.0
2018-Apr-11 09:33N 41°22' E 002°11'0 0.7
2018-Apr-11 09:29N 41°22' E 002°11'3 5.9
2018-Apr-11 09:00N 41°19' E 002°10'918.5
2018-Apr-11 08:30N 41°10' E 002°08'1120.9
2018-Apr-11 08:00N 41°00' E 002°02'12817.8
2018-Apr-11 00:49N 39°37' W 000°05'617.8
2018-Apr-11 00:30N 39°33' W 000°09'  

Dump ship's entire track history